Vega Nikolas — A8QD2 — position and weather

sailwx.info

Track history (hours):
 
Tides and Currents Weather Stations Pressure Air Temp Water Temp Dewpoint Dewpoint Depression Visibility Wind Speed Wind Dir Waves Ship Positions

Vega Nikolas

Last reported at 2014-Sep-04 11:20 UTC. Time now 2014-Sep-16 21:25 UTC.
Position N 37°38' W 071°21'.
Warning: this ship's position is 12 days out of date.

Length 139 m; draft 7.8 m.

Type: Ship (hazmat cat A). MMSI: 636091613.

Date/timePositionNaut miles runAvg speedWind from/ knotsBaromVisibWave heightAir tempDewpointWater temp
2014-Sep-04 11:20N 37°38' W 071°21'4415.8
2014-Sep-04 08:33N 38°16' W 071°47'1616.2
2014-Sep-04 07:33N 38°30' W 071°57'1616.2
2014-Sep-04 06:33N 38°45' W 072°07'1616.0
2014-Sep-04 05:33N 38°58' W 072°18'1615.8
2014-Sep-04 04:33N 39°11' W 072°30'1615.6
2014-Sep-04 03:33N 39°24' W 072°42'1515.4
2014-Sep-04 02:33N 39°36' W 072°53'1515.5
2014-Sep-04 01:33N 39°48' W 073°06'5015.8
2014-Sep-03 22:22N 40°27' W 073°48'1214.6
2014-Sep-03 21:33N 40°33' W 074°02'8 8.1
2014-Sep-03 20:32N 40°41' W 074°01'0 0.0
2014-Sep-03 19:32N 40°41' W 074°01'0 0.0
2014-Sep-03 18:32N 40°41' W 074°01'0 0.0
2014-Sep-03 17:26N 40°41' W 074°01'0 0.0
2014-Sep-03 16:32N 40°41' W 074°01'0 0.0
2014-Sep-03 15:32N 40°41' W 074°01'0 0.0
2014-Sep-03 14:32N 40°41' W 074°01'0 0.0
2014-Sep-03 13:29N 40°41' W 074°01'0 0.0
2014-Sep-03 12:32N 40°41' W 074°01'0 0.0
2014-Sep-03 11:32N 40°41' W 074°01'0 0.1
2014-Sep-03 10:33N 40°41' W 074°01'3 3.3
2014-Sep-03 09:33N 40°38' W 074°03'1111.3
2014-Sep-03 08:33N 40°29' W 073°55'10 9.5
2014-Sep-03 07:32N 40°24' W 073°44'1110.7
2014-Sep-03 06:31N 40°18' W 073°32'1110.7
2014-Sep-03 05:31N 40°11' W 073°21'1111.2
2014-Sep-03 04:33N 40°04' W 073°10'1211.8
2014-Sep-03 03:33N 39°54' W 073°02'1111.2
2014-Sep-03 02:33N 39°45' W 072°54'1111.2
2014-Sep-03 01:33N 39°35' W 072°46'1111.5
2014-Sep-03 00:34N 39°26' W 072°38'1211.5
2014-Sep-02 23:33N 39°16' W 072°30'1212.0
2014-Sep-02 22:33N 39°06' W 072°22'1712.1
2014-Sep-02 21:10N 38°52' W 072°11'712.1
2014-Sep-02 20:33N 38°45' W 072°06'10 9.8
2014-Sep-02 19:33N 38°36' W 072°00'1813.0
2014-Sep-02 18:08N 38°20' W 071°50'  
Track history (hours):
 
Tides and Currents Weather Stations Pressure Air Temp Water Temp Dewpoint Dewpoint Depression Visibility Wind Speed Wind Dir Waves Ship Positions

Vega Nikolas

Last reported at 2014-Sep-04 11:20 UTC. Time now 2014-Sep-16 21:25 UTC.
Position N 37°38' W 071°21'.
Warning: this ship's position is 12 days out of date.

Length 139 m; draft 7.8 m.

Type: Ship (hazmat cat A). MMSI: 636091613.

Date/timePositionNaut miles runAvg speedWind from/ knotsBaromVisibWave heightAir tempDewpointWater temp
2014-Sep-04 11:20N 37°38' W 071°21'4415.8
2014-Sep-04 08:33N 38°16' W 071°47'1616.2
2014-Sep-04 07:33N 38°30' W 071°57'1616.2
2014-Sep-04 06:33N 38°45' W 072°07'1616.0
2014-Sep-04 05:33N 38°58' W 072°18'1615.8
2014-Sep-04 04:33N 39°11' W 072°30'1615.6
2014-Sep-04 03:33N 39°24' W 072°42'1515.4
2014-Sep-04 02:33N 39°36' W 072°53'1515.5
2014-Sep-04 01:33N 39°48' W 073°06'5015.8
2014-Sep-03 22:22N 40°27' W 073°48'1214.6
2014-Sep-03 21:33N 40°33' W 074°02'8 8.1
2014-Sep-03 20:32N 40°41' W 074°01'0 0.0
2014-Sep-03 19:32N 40°41' W 074°01'0 0.0
2014-Sep-03 18:32N 40°41' W 074°01'0 0.0
2014-Sep-03 17:26N 40°41' W 074°01'0 0.0
2014-Sep-03 16:32N 40°41' W 074°01'0 0.0
2014-Sep-03 15:32N 40°41' W 074°01'0 0.0
2014-Sep-03 14:32N 40°41' W 074°01'0 0.0
2014-Sep-03 13:29N 40°41' W 074°01'0 0.0
2014-Sep-03 12:32N 40°41' W 074°01'0 0.0
2014-Sep-03 11:32N 40°41' W 074°01'0 0.1
2014-Sep-03 10:33N 40°41' W 074°01'3 3.3
2014-Sep-03 09:33N 40°38' W 074°03'1111.3
2014-Sep-03 08:33N 40°29' W 073°55'10 9.5
2014-Sep-03 07:32N 40°24' W 073°44'1110.7
2014-Sep-03 06:31N 40°18' W 073°32'1110.7
2014-Sep-03 05:31N 40°11' W 073°21'1111.2
2014-Sep-03 04:33N 40°04' W 073°10'1211.8
2014-Sep-03 03:33N 39°54' W 073°02'1111.2
2014-Sep-03 02:33N 39°45' W 072°54'1111.2
2014-Sep-03 01:33N 39°35' W 072°46'1111.5
2014-Sep-03 00:34N 39°26' W 072°38'1211.5
2014-Sep-02 23:33N 39°16' W 072°30'1212.0
2014-Sep-02 22:33N 39°06' W 072°22'1712.1
2014-Sep-02 21:10N 38°52' W 072°11'712.1
2014-Sep-02 20:33N 38°45' W 072°06'10 9.8
2014-Sep-02 19:33N 38°36' W 072°00'1813.0
2014-Sep-02 18:08N 38°20' W 071°50'  

Dump ship's entire track history